createdAt,value
2023-01-29T00:00:12.886Z,101845.34
2023-01-29T00:02:40.336Z,101840.94
2023-01-29T00:05:26.123Z,101849.94
2023-01-29T00:07:56.582Z,101840.44
2023-01-29T00:10:25.622Z,101846.34
2023-01-29T00:12:53.292Z,101847.16
2023-01-29T00:15:21.037Z,101849.66
2023-01-29T00:17:48.770Z,101841.03
2023-01-29T00:20:17.546Z,101839.16
2023-01-29T00:22:46.424Z,101847.16
2023-01-29T00:25:14.591Z,101840.09
2023-01-29T00:27:42.382Z,101838.72
2023-01-29T00:30:13.235Z,101850.69
2023-01-29T00:32:41.149Z,101851.50
2023-01-29T00:35:10.243Z,101847.13
2023-01-29T00:37:38.727Z,101849.91
2023-01-29T00:40:06.741Z,101852.72
2023-01-29T00:42:53.150Z,101856.41
2023-01-29T00:45:20.686Z,101859.66
2023-01-29T00:47:48.371Z,101850.28
2023-01-29T00:50:16.279Z,101860.78
2023-01-29T00:52:44.571Z,101862.84
2023-01-29T00:55:12.681Z,101869.13
2023-01-29T00:57:40.571Z,101856.69
2023-01-29T01:00:12.592Z,101860.88
2023-01-29T01:02:58.675Z,101854.16
2023-01-29T01:05:28.105Z,101871.34
2023-01-29T01:07:58.559Z,101864.38
2023-01-29T01:10:32.814Z,101859.88
2023-01-29T01:13:06.480Z,101859.91
2023-01-29T01:15:39.793Z,101860.75
2023-01-29T01:18:07.623Z,101864.91
2023-01-29T01:20:36.374Z,101869.25
2023-01-29T01:23:04.509Z,101866.63
2023-01-29T01:25:32.880Z,101864.78
2023-01-29T01:28:03.551Z,101870.81
2023-01-29T01:30:31.224Z,101866.56
2023-01-29T01:32:59.552Z,101871.00
2023-01-29T01:35:27.595Z,101871.09
2023-01-29T01:37:55.295Z,101876.13
2023-01-29T01:40:25.639Z,101869.16
2023-01-29T01:42:58.609Z,101875.41
2023-01-29T01:45:33.804Z,101870.44
2023-01-29T01:48:13.092Z,101876.13
2023-01-29T01:51:06.436Z,101878.00
2023-01-29T01:53:42.124Z,101876.31
2023-01-29T01:56:14.450Z,101877.19
2023-01-29T01:58:55.468Z,101867.66
2023-01-29T02:01:30.847Z,101868.50
2023-01-29T02:04:21.452Z,101864.06
2023-01-29T02:07:08.991Z,101864.91
2023-01-29T02:09:41.891Z,101855.41
2023-01-29T02:12:13.166Z,101859.72
2023-01-29T02:14:42.452Z,101859.25
2023-01-29T02:17:20.669Z,101867.31
2023-01-29T02:20:07.062Z,101874.34
2023-01-29T02:22:56.504Z,101883.06
2023-01-29T02:25:48.947Z,101884.78
2023-01-29T02:28:31.186Z,101887.13
2023-01-29T02:31:20.011Z,101888.75
2023-01-29T02:34:06.218Z,101885.16
2023-01-29T02:36:45.802Z,101893.06
2023-01-29T02:39:22.579Z,101888.72
2023-01-29T02:41:56.705Z,101886.28
2023-01-29T02:44:50.722Z,101897.47
2023-01-29T02:47:42.690Z,101900.97
2023-01-29T02:50:16.391Z,101901.91
2023-01-29T02:52:56.885Z,101893.47
2023-01-29T02:55:34.468Z,101894.25
2023-01-29T02:58:32.263Z,101896.75
2023-01-29T03:01:09.930Z,101885.50
2023-01-29T03:03:44.730Z,101889.78
2023-01-29T03:06:22.365Z,101889.16
2023-01-29T03:08:59.104Z,101881.16
2023-01-29T03:11:35.106Z,101868.19
2023-01-29T03:14:13.213Z,101884.66
2023-01-29T03:16:48.774Z,101880.22
2023-01-29T03:19:39.848Z,101886.16
2023-01-29T03:22:20.901Z,101886.94
2023-01-29T03:25:12.474Z,101889.38
2023-01-29T03:28:12.178Z,101886.63
2023-01-29T03:31:18.851Z,101897.63
2023-01-29T03:34:01.979Z,101898.59
2023-01-29T03:36:39.805Z,101903.50
2023-01-29T03:39:11.626Z,101901.78
2023-01-29T03:41:49.793Z,101894.66
2023-01-29T03:44:37.150Z,101893.66
2023-01-29T03:47:17.487Z,101904.09
2023-01-29T03:49:57.771Z,101904.06
2023-01-29T03:52:52.188Z,101904.91
2023-01-29T03:55:32.617Z,101914.44
2023-01-29T03:58:26.054Z,101908.28
2023-01-29T04:01:02.939Z,101913.59
2023-01-29T04:03:33.675Z,101911.84
2023-01-29T04:06:11.420Z,101915.44
2023-01-29T04:08:55.888Z,101910.81
2023-01-29T04:11:25.865Z,101913.06
2023-01-29T04:13:54.336Z,101908.94
2023-01-29T04:16:27.921Z,101905.81
2023-01-29T04:19:18.463Z,101907.38
2023-01-29T04:21:49.287Z,101905.28
2023-01-29T04:24:17.569Z,101902.78
2023-01-29T04:26:51.542Z,101907.59
2023-01-29T04:29:50.391Z,101903.94
2023-01-29T04:32:29.176Z,101903.16
2023-01-29T04:35:05.571Z,101895.81
2023-01-29T04:37:36.734Z,101899.69
2023-01-29T04:40:16.114Z,101899.19
2023-01-29T04:43:01.993Z,101895.53
2023-01-29T04:45:57.350Z,101903.63
2023-01-29T04:48:33.027Z,101901.66
2023-01-29T04:51:17.950Z,101904.19
2023-01-29T04:53:56.908Z,101900.81
2023-01-29T04:56:42.261Z,101903.47
2023-01-29T04:59:16.552Z,101903.94
2023-01-29T05:01:44.799Z,101905.97
2023-01-29T05:04:17.468Z,101901.47
2023-01-29T05:06:48.672Z,101906.53
2023-01-29T05:09:18.445Z,101908.22
2023-01-29T05:11:48.477Z,101911.09
2023-01-29T05:14:19.685Z,101910.41
2023-01-29T05:16:52.957Z,101918.19
2023-01-29T05:19:20.523Z,101917.16
2023-01-29T05:21:50.405Z,101911.69
2023-01-29T05:24:23.116Z,101911.88
2023-01-29T05:27:11.993Z,101915.13
2023-01-29T05:29:47.027Z,101920.59
2023-01-29T05:32:15.912Z,101922.41
2023-01-29T05:34:43.833Z,101916.19
2023-01-29T05:37:11.319Z,101923.97
2023-01-29T05:39:38.951Z,101926.91
2023-01-29T05:42:06.533Z,101928.78
2023-01-29T05:44:34.016Z,101926.84
2023-01-29T05:47:02.867Z,101925.22
2023-01-29T05:49:30.959Z,101926.25
2023-01-29T05:51:58.714Z,101934.25
2023-01-29T05:54:26.181Z,101929.66
2023-01-29T05:56:54.116Z,101931.41
2023-01-29T05:59:21.755Z,101929.56
2023-01-29T06:01:49.736Z,101934.75
2023-01-29T06:04:17.595Z,101939.03
2023-01-29T06:06:45.649Z,101942.50
2023-01-29T06:09:13.217Z,101947.72
2023-01-29T06:11:40.889Z,101941.53
2023-01-29T06:14:08.409Z,101944.22
2023-01-29T06:16:36.418Z,101944.13
2023-01-29T06:19:03.945Z,101943.16
2023-01-29T06:21:31.644Z,101951.94
2023-01-29T06:23:59.811Z,101948.53
2023-01-29T06:26:27.535Z,101958.03
2023-01-29T06:28:55.074Z,101955.41
2023-01-29T06:31:37.263Z,101964.59
2023-01-29T06:34:07.236Z,101966.38
2023-01-29T06:36:35.430Z,101963.69
2023-01-29T06:39:04.561Z,101967.06
2023-01-29T06:41:32.273Z,101974.03
2023-01-29T06:43:59.875Z,101976.53
2023-01-29T06:46:27.845Z,101978.13
2023-01-29T06:49:00.618Z,101978.16
2023-01-29T06:51:28.180Z,101989.25
2023-01-29T06:53:56.489Z,101988.47
2023-01-29T06:56:24.801Z,101993.75
2023-01-29T06:58:52.760Z,101997.00
2023-01-29T07:01:34.733Z,101994.50
2023-01-29T07:04:04.113Z,102002.19
2023-01-29T07:06:32.624Z,101997.94
2023-01-29T07:09:00.837Z,101999.81
2023-01-29T07:11:28.779Z,102005.03
2023-01-29T07:13:57.015Z,102005.03
2023-01-29T07:16:26.396Z,102016.84
2023-01-29T07:18:55.242Z,102011.97
2023-01-29T07:21:23.078Z,102010.28
2023-01-29T07:23:51.165Z,102023.41
2023-01-29T07:26:19.349Z,102031.94
2023-01-29T07:28:47.267Z,102028.28
2023-01-29T07:31:15.937Z,102034.97
2023-01-29T07:33:44.662Z,102040.06
2023-01-29T07:36:13.175Z,102043.59
2023-01-29T07:38:40.929Z,102039.94
2023-01-29T07:41:11.449Z,102041.50
2023-01-29T07:43:39.477Z,102036.91
2023-01-29T07:46:08.066Z,102042.09
2023-01-29T07:48:36.047Z,102052.63
2023-01-29T07:51:03.712Z,102051.88
2023-01-29T07:53:31.617Z,102057.72
2023-01-29T07:55:59.390Z,102070.47
2023-01-29T07:58:26.987Z,102068.63
2023-01-29T08:00:54.620Z,102070.53
2023-01-29T08:03:23.175Z,102078.28
2023-01-29T08:05:50.753Z,102080.84
2023-01-29T08:08:19.424Z,102080.31
2023-01-29T08:10:46.975Z,102062.06
2023-01-29T08:13:15.063Z,102069.56
2023-01-29T08:15:44.313Z,102072.88
2023-01-29T08:18:12.796Z,102075.91
2023-01-29T08:20:40.979Z,102069.81
2023-01-29T08:23:15.581Z,102072.41
2023-01-29T08:25:43.820Z,102076.81
2023-01-29T08:28:12.497Z,102086.66
2023-01-29T08:30:40.524Z,102087.41
2023-01-29T08:33:09.097Z,102080.09
2023-01-29T08:35:37.590Z,102080.97
2023-01-29T08:38:06.071Z,102083.50
2023-01-29T08:40:35.069Z,102084.44
2023-01-29T08:43:06.870Z,102079.16
2023-01-29T08:45:37.442Z,102077.84
2023-01-29T08:48:05.423Z,102080.41
2023-01-29T08:50:34.934Z,102079.19
2023-01-29T08:53:07.642Z,102077.41
2023-01-29T08:55:37.250Z,102079.50
2023-01-29T08:58:06.038Z,102082.03
2023-01-29T09:00:35.008Z,102079.88
2023-01-29T09:03:03.906Z,102081.91
2023-01-29T09:05:31.541Z,102073.31
2023-01-29T09:07:59.435Z,102081.75
2023-01-29T09:10:27.159Z,102083.38
2023-01-29T09:12:55.143Z,102085.41
2023-01-29T09:15:23.127Z,102077.44
2023-01-29T09:17:50.717Z,102089.91
2023-01-29T09:20:19.716Z,102080.84
2023-01-29T09:22:47.794Z,102096.41
2023-01-29T09:25:15.835Z,102086.69
2023-01-29T09:27:43.527Z,102087.41
2023-01-29T09:30:12.102Z,102098.38
2023-01-29T09:32:55.250Z,102101.56
2023-01-29T09:35:24.095Z,102089.19
2023-01-29T09:37:52.366Z,102091.84
2023-01-29T09:40:45.851Z,102094.91
2023-01-29T09:43:16.876Z,102095.94
2023-01-29T09:45:54.641Z,102096.09
2023-01-29T09:48:27.500Z,102094.78
2023-01-29T09:50:59.327Z,102089.75
2023-01-29T09:53:41.034Z,102086.69
2023-01-29T09:56:20.025Z,102090.66
2023-01-29T09:58:48.461Z,102077.00
2023-01-29T10:01:40.735Z,102089.06
2023-01-29T10:04:27.013Z,102081.56
2023-01-29T10:06:54.979Z,102081.75
2023-01-29T10:09:26.357Z,102078.78
2023-01-29T10:12:08.993Z,102079.16
2023-01-29T10:14:58.416Z,102068.22
2023-01-29T10:17:56.944Z,102068.88
2023-01-29T10:20:58.432Z,102062.34
2023-01-29T10:23:40.698Z,102055.91
2023-01-29T10:26:13.047Z,102058.00
2023-01-29T10:28:46.365Z,102067.44
2023-01-29T10:31:33.327Z,102062.03
2023-01-29T10:34:07.846Z,102053.53
2023-01-29T10:36:47.385Z,102054.00
2023-01-29T10:39:19.456Z,102055.19
2023-01-29T10:42:14.581Z,102040.72
2023-01-29T10:44:47.846Z,102041.34
2023-01-29T10:47:30.764Z,102029.84
2023-01-29T10:50:37.106Z,102036.06
2023-01-29T10:53:35.568Z,102027.97
2023-01-29T10:56:22.259Z,102034.50
2023-01-29T10:59:01.718Z,102016.44
2023-01-29T11:01:29.518Z,102020.59
2023-01-29T11:04:03.218Z,102016.59
2023-01-29T11:06:36.953Z,102005.53
2023-01-29T11:09:26.358Z,102012.97
2023-01-29T11:12:10.179Z,102003.56
2023-01-29T11:14:51.760Z,101994.72
2023-01-29T11:17:21.610Z,101992.56
2023-01-29T11:19:51.752Z,101981.78
2023-01-29T11:22:21.560Z,101978.91
2023-01-29T11:25:18.060Z,101980.63
2023-01-29T11:27:49.573Z,101972.72
2023-01-29T11:30:29.247Z,101967.31
2023-01-29T11:33:08.385Z,101958.56
2023-01-29T11:35:36.734Z,101954.66
2023-01-29T11:38:16.447Z,101946.91
2023-01-29T11:40:44.690Z,101944.63
2023-01-29T11:43:18.960Z,101936.66
2023-01-29T11:45:49.668Z,101926.19
2023-01-29T11:48:21.514Z,101923.88
2023-01-29T11:50:56.193Z,101923.25
2023-01-29T11:53:38.180Z,101910.66
2023-01-29T11:56:28.634Z,101907.50
2023-01-29T11:58:58.135Z,101908.00
2023-01-29T12:01:36.846Z,101898.28
2023-01-29T12:04:19.572Z,101893.25
2023-01-29T12:06:52.127Z,101888.50
2023-01-29T12:09:27.325Z,101893.09
2023-01-29T12:11:55.379Z,101892.56
2023-01-29T12:14:34.314Z,101881.06
2023-01-29T12:17:08.700Z,101884.44
2023-01-29T12:19:48.015Z,101873.75
2023-01-29T12:22:33.246Z,101877.84
2023-01-29T12:25:09.585Z,101878.19
2023-01-29T12:27:52.291Z,101873.47
2023-01-29T12:30:26.403Z,101873.78
2023-01-29T12:33:01.452Z,101874.66
2023-01-29T12:35:34.832Z,101871.75
2023-01-29T12:38:20.604Z,101854.34
2023-01-29T12:40:55.300Z,101855.38
2023-01-29T12:43:31.298Z,101856.47
2023-01-29T12:46:02.303Z,101850.47
2023-01-29T12:48:36.606Z,101857.03
2023-01-29T12:51:09.954Z,101859.41
2023-01-29T12:54:07.418Z,101860.13
2023-01-29T12:56:49.342Z,101843.16
2023-01-29T12:59:29.345Z,101855.78
2023-01-29T13:02:02.991Z,101840.50
2023-01-29T13:04:42.928Z,101844.50
2023-01-29T13:07:19.022Z,101836.59
2023-01-29T13:09:52.509Z,101833.19
2023-01-29T13:12:22.682Z,101827.25
2023-01-29T13:15:02.808Z,101827.69
2023-01-29T13:17:42.880Z,101818.28
2023-01-29T13:20:20.305Z,101820.63
2023-01-29T13:22:50.924Z,101800.69
2023-01-29T13:25:20.470Z,101804.00
2023-01-29T13:27:50.390Z,101802.09
2023-01-29T13:30:31.668Z,101794.28
2023-01-29T13:33:09.536Z,101799.34
2023-01-29T13:35:42.816Z,101800.50
2023-01-29T13:38:27.207Z,101801.19
2023-01-29T13:41:01.792Z,101800.13
2023-01-29T13:43:37.879Z,101794.09
2023-01-29T13:46:21.507Z,101798.22
2023-01-29T13:48:52.382Z,101797.38
2023-01-29T13:51:29.694Z,101796.13
2023-01-29T13:54:23.473Z,101795.81
2023-01-29T13:57:00.715Z,101789.81
2023-01-29T13:59:53.189Z,101788.94
2023-01-29T14:02:26.549Z,101790.25
2023-01-29T14:05:33.865Z,101789.72
2023-01-29T14:08:43.880Z,101781.97
2023-01-29T14:11:17.847Z,101774.19
2023-01-29T14:13:47.036Z,101779.06
2023-01-29T14:16:14.558Z,101772.00
2023-01-29T14:18:49.317Z,101789.22
2023-01-29T14:21:16.835Z,101770.56
2023-01-29T14:23:48.616Z,101777.50
2023-01-29T14:26:33.039Z,101775.56
2023-01-29T14:29:03.090Z,101771.78
2023-01-29T14:31:37.819Z,101769.66
2023-01-29T14:34:15.055Z,101762.94
2023-01-29T14:36:45.091Z,101767.97
2023-01-29T14:39:43.791Z,101774.19
2023-01-29T14:42:33.545Z,101773.22
2023-01-29T14:45:08.643Z,101765.69
2023-01-29T14:47:39.858Z,101764.34
2023-01-29T14:50:32.801Z,101781.94
2023-01-29T14:53:03.548Z,101776.13
2023-01-29T14:55:39.943Z,101771.69
2023-01-29T14:58:14.505Z,101767.63
2023-01-29T15:00:46.955Z,101773.06
2023-01-29T15:03:20.860Z,101778.09
2023-01-29T15:05:50.223Z,101782.53
2023-01-29T15:08:41.406Z,101781.81
2023-01-29T15:11:36.549Z,101783.34
2023-01-29T15:14:32.125Z,101779.59
2023-01-29T15:17:06.749Z,101779.63
2023-01-29T15:19:48.762Z,101779.00
2023-01-29T15:22:21.521Z,101776.16
2023-01-29T15:25:15.247Z,101773.47
2023-01-29T15:27:44.561Z,101773.09
2023-01-29T15:30:18.949Z,101774.50
2023-01-29T15:32:47.853Z,101777.84
2023-01-29T15:35:29.643Z,101784.66
2023-01-29T15:38:02.883Z,101780.91
2023-01-29T15:40:30.888Z,101787.34
2023-01-29T15:42:59.008Z,101789.56
2023-01-29T15:45:32.433Z,101789.81
2023-01-29T15:48:13.470Z,101793.13
2023-01-29T15:50:42.800Z,101793.59
2023-01-29T15:53:18.313Z,101789.06
2023-01-29T15:55:47.894Z,101801.34
2023-01-29T15:58:19.323Z,101804.81
2023-01-29T16:00:56.320Z,101799.44
2023-01-29T16:03:28.227Z,101800.47
2023-01-29T16:05:56.295Z,101789.75
2023-01-29T16:08:26.439Z,101786.59
2023-01-29T16:11:00.862Z,101797.25
2023-01-29T16:13:32.753Z,101802.66
2023-01-29T16:16:04.291Z,101799.53
2023-01-29T16:18:37.470Z,101799.88
2023-01-29T16:21:12.758Z,101798.19
2023-01-29T16:23:44.095Z,101797.56
2023-01-29T16:26:21.927Z,101798.47
2023-01-29T16:28:49.614Z,101795.69
2023-01-29T16:31:28.799Z,101792.81
2023-01-29T16:33:59.539Z,101792.81
2023-01-29T16:36:28.082Z,101787.41
2023-01-29T16:39:01.541Z,101791.16
2023-01-29T16:41:32.261Z,101797.78
2023-01-29T16:44:21.941Z,101796.25
2023-01-29T16:46:52.637Z,101798.44
2023-01-29T16:49:26.490Z,101806.34
2023-01-29T16:51:56.469Z,101802.78
2023-01-29T16:54:26.257Z,101803.03
2023-01-29T16:57:02.055Z,101807.44
2023-01-29T16:59:35.540Z,101814.84
2023-01-29T17:02:04.473Z,101808.66
2023-01-29T17:04:33.227Z,101810.94
2023-01-29T17:07:03.032Z,101815.53
2023-01-29T17:09:34.895Z,101810.19
2023-01-29T17:12:08.417Z,101811.47
2023-01-29T17:14:38.667Z,101818.69
2023-01-29T17:17:14.424Z,101823.22
2023-01-29T17:19:41.999Z,101808.66
2023-01-29T17:22:14.755Z,101816.84
2023-01-29T17:24:43.211Z,101817.72
2023-01-29T17:27:20.103Z,101812.41
2023-01-29T17:29:48.226Z,101813.81
2023-01-29T17:32:18.873Z,101819.63
2023-01-29T17:34:47.101Z,101821.34
2023-01-29T17:37:16.495Z,101825.09
2023-01-29T17:39:50.848Z,101829.22
2023-01-29T17:42:18.425Z,101825.09
2023-01-29T17:44:46.563Z,101824.84
2023-01-29T17:47:17.476Z,101829.38
2023-01-29T17:49:45.131Z,101833.53
2023-01-29T17:52:12.722Z,101826.63
2023-01-29T17:54:40.643Z,101832.44
2023-01-29T17:57:10.985Z,101827.16
2023-01-29T17:59:38.879Z,101829.44
2023-01-29T18:02:06.864Z,101828.28
2023-01-29T18:04:34.401Z,101825.28
2023-01-29T18:07:02.195Z,101826.19
2023-01-29T18:09:29.780Z,101829.03
2023-01-29T18:11:57.266Z,101825.28
2023-01-29T18:14:25.459Z,101828.19
2023-01-29T18:16:53.214Z,101826.47
2023-01-29T18:19:24.011Z,101820.53
2023-01-29T18:21:52.535Z,101821.16
2023-01-29T18:24:20.886Z,101815.81
2023-01-29T18:26:49.466Z,101812.59
2023-01-29T18:29:17.669Z,101827.28
2023-01-29T18:31:48.291Z,101812.06
2023-01-29T18:34:16.328Z,101822.78
2023-01-29T18:36:47.027Z,101816.91
2023-01-29T18:39:15.942Z,101817.78
2023-01-29T18:41:44.173Z,101809.22
2023-01-29T18:44:12.749Z,101818.72
2023-01-29T18:46:40.297Z,101813.19
2023-01-29T18:49:08.005Z,101814.16
2023-01-29T18:51:35.545Z,101811.41
2023-01-29T18:54:04.194Z,101814.47
2023-01-29T18:56:31.804Z,101811.28
2023-01-29T18:58:59.544Z,101822.13
2023-01-29T19:01:27.596Z,101819.97
2023-01-29T19:03:56.571Z,101814.69
2023-01-29T19:06:24.518Z,101825.88
2023-01-29T19:08:52.054Z,101810.81
2023-01-29T19:11:20.230Z,101817.38
2023-01-29T19:13:49.793Z,101820.44
2023-01-29T19:16:17.566Z,101816.44
2023-01-29T19:18:45.674Z,101807.25
2023-01-29T19:21:15.709Z,101810.47
2023-01-29T19:23:44.896Z,101813.63
2023-01-29T19:26:13.694Z,101813.56
2023-01-29T19:28:42.155Z,101816.41
2023-01-29T19:31:09.879Z,101809.78
2023-01-29T19:33:37.651Z,101814.31
2023-01-29T19:36:06.212Z,101810.00
2023-01-29T19:38:37.935Z,101813.31
2023-01-29T19:41:05.821Z,101821.09
2023-01-29T19:43:33.594Z,101816.56
2023-01-29T19:46:02.285Z,101818.69
2023-01-29T19:48:30.120Z,101817.91
2023-01-29T19:51:01.325Z,101823.16
2023-01-29T19:53:29.999Z,101818.69
2023-01-29T19:56:03.190Z,101821.75
2023-01-29T19:58:31.467Z,101813.94
2023-01-29T20:01:15.149Z,101820.06
2023-01-29T20:03:46.446Z,101822.59
2023-01-29T20:06:17.155Z,101818.53
2023-01-29T20:08:46.400Z,101815.03
2023-01-29T20:11:16.246Z,101816.75
2023-01-29T20:13:46.321Z,101821.72
2023-01-29T20:16:15.157Z,101819.31
2023-01-29T20:18:44.422Z,101818.03
2023-01-29T20:21:15.042Z,101824.34
2023-01-29T20:23:44.895Z,101821.81
2023-01-29T20:26:16.608Z,101814.25
2023-01-29T20:28:48.999Z,101822.22
2023-01-29T20:31:17.517Z,101811.84
2023-01-29T20:33:45.095Z,101819.63
2023-01-29T20:36:13.473Z,101812.84
2023-01-29T20:38:41.385Z,101806.59
2023-01-29T20:41:18.006Z,101816.22
2023-01-29T20:43:47.168Z,101811.41
2023-01-29T20:46:14.984Z,101809.44
2023-01-29T20:48:42.746Z,101811.56
2023-01-29T20:51:15.301Z,101816.31
2023-01-29T20:53:45.501Z,101814.50
2023-01-29T20:56:15.153Z,101817.19
2023-01-29T20:58:43.504Z,101810.97
2023-01-29T21:01:13.515Z,101814.78
2023-01-29T21:03:42.458Z,101813.25
2023-01-29T21:06:11.214Z,101808.34
2023-01-29T21:08:40.464Z,101813.53
2023-01-29T21:11:09.559Z,101814.56
2023-01-29T21:13:38.113Z,101816.31
2023-01-29T21:16:06.636Z,101806.31
2023-01-29T21:18:34.194Z,101814.97
2023-01-29T21:21:02.044Z,101810.59
2023-01-29T21:23:29.789Z,101810.41
2023-01-29T21:26:07.247Z,101813.75
2023-01-29T21:28:35.409Z,101808.44
2023-01-29T21:31:11.156Z,101808.31
2023-01-29T21:33:38.843Z,101804.97
2023-01-29T21:36:08.492Z,101804.31
2023-01-29T21:38:37.425Z,101811.22
2023-01-29T21:41:08.177Z,101808.34
2023-01-29T21:43:36.622Z,101804.13
2023-01-29T21:46:11.973Z,101810.94
2023-01-29T21:48:40.338Z,101818.91
2023-01-29T21:51:08.427Z,101808.53
2023-01-29T21:53:36.840Z,101812.97
2023-01-29T21:56:05.457Z,101806.31
2023-01-29T21:58:33.282Z,101807.25
2023-01-29T22:01:36.224Z,101808.00
2023-01-29T22:03:49.242Z,101811.34
2023-01-29T22:06:16.861Z,101802.72
2023-01-29T22:08:44.929Z,101808.66
2023-01-29T22:11:13.365Z,101802.81
2023-01-29T22:13:41.227Z,101801.78
2023-01-29T22:16:09.449Z,101806.41
2023-01-29T22:18:37.550Z,101800.41
2023-01-29T22:21:05.606Z,101798.53
2023-01-29T22:23:33.205Z,101799.34
2023-01-29T22:26:05.518Z,101798.84
2023-01-29T22:28:33.360Z,101795.19
2023-01-29T22:31:03.047Z,101805.66
2023-01-29T22:33:31.135Z,101794.31
2023-01-29T22:35:59.918Z,101785.09
2023-01-29T22:38:28.249Z,101787.78
2023-01-29T22:40:57.743Z,101785.25
2023-01-29T22:43:26.113Z,101780.28
2023-01-29T22:45:53.636Z,101778.59
2023-01-29T22:48:22.796Z,101780.22
2023-01-29T22:51:10.158Z,101781.78
2023-01-29T22:53:43.382Z,101780.97
2023-01-29T22:56:12.065Z,101771.41
2023-01-29T22:58:41.263Z,101779.34
2023-01-29T23:01:10.291Z,101774.19
2023-01-29T23:03:38.423Z,101768.16
2023-01-29T23:06:06.514Z,101770.75
2023-01-29T23:08:34.176Z,101775.16
2023-01-29T23:11:15.227Z,101775.09
2023-01-29T23:13:52.217Z,101776.25
2023-01-29T23:16:22.515Z,101771.75
2023-01-29T23:18:52.799Z,101770.00
2023-01-29T23:21:22.776Z,101770.13
2023-01-29T23:23:52.542Z,101767.72
2023-01-29T23:26:39.078Z,101769.50
2023-01-29T23:29:06.601Z,101767.75
2023-01-29T23:31:34.793Z,101766.03
2023-01-29T23:34:02.400Z,101765.94
2023-01-29T23:36:29.960Z,101770.94
2023-01-29T23:38:57.558Z,101765.03
2023-01-29T23:41:25.253Z,101766.94
2023-01-29T23:43:53.247Z,101763.53
2023-01-29T23:46:21.294Z,101755.84
2023-01-29T23:48:48.852Z,101758.47
2023-01-29T23:51:16.385Z,101762.81
2023-01-29T23:53:44.157Z,101761.09
2023-01-29T23:56:12.347Z,101762.81
2023-01-29T23:58:39.962Z,101764.50
